createdAt,value
2022-10-30T00:00:53.585Z,6.00
2022-10-30T00:03:22.010Z,6.23
2022-10-30T00:05:52.640Z,7.03
2022-10-30T00:08:22.815Z,6.57
2022-10-30T00:10:51.281Z,7.03
2022-10-30T00:13:22.068Z,6.10
2022-10-30T00:15:52.240Z,7.27
2022-10-30T00:18:21.554Z,6.47
2022-10-30T00:20:50.194Z,6.77
2022-10-30T00:23:18.764Z,6.80
2022-10-30T00:25:47.185Z,7.10
2022-10-30T00:28:15.618Z,7.70
2022-10-30T00:30:46.703Z,6.77
2022-10-30T00:33:15.148Z,8.07
2022-10-30T00:35:49.728Z,6.47
2022-10-30T00:38:18.167Z,6.97
2022-10-30T00:40:46.813Z,7.90
2022-10-30T00:43:36.712Z,7.47
2022-10-30T00:46:16.047Z,7.30
2022-10-30T00:48:46.535Z,7.73
2022-10-30T00:51:15.775Z,7.33
2022-10-30T00:53:44.742Z,7.40
2022-10-30T00:56:15.494Z,7.13
2022-10-30T00:58:48.067Z,6.97
2022-10-30T01:01:21.125Z,7.33
2022-10-30T01:03:53.746Z,6.57
2022-10-30T01:06:22.451Z,6.83
2022-10-30T01:08:55.297Z,7.33
2022-10-30T01:11:27.470Z,7.23
2022-10-30T01:13:59.245Z,7.33
2022-10-30T01:16:50.886Z,7.93
2022-10-30T01:19:27.531Z,7.63
2022-10-30T01:22:12.911Z,7.10
2022-10-30T01:24:55.238Z,7.03
2022-10-30T01:27:39.675Z,7.63
2022-10-30T01:30:19.684Z,6.93
2022-10-30T01:33:03.107Z,7.53
2022-10-30T01:35:38.591Z,7.90
2022-10-30T01:38:12.615Z,6.47
2022-10-30T01:40:41.015Z,8.30
2022-10-30T01:43:10.595Z,7.47
2022-10-30T01:46:02.921Z,8.40
2022-10-30T01:49:08.518Z,9.77
2022-10-30T01:51:51.609Z,9.17
2022-10-30T01:54:29.890Z,8.43
2022-10-30T01:57:07.827Z,7.13
2022-10-30T01:59:43.095Z,7.40
2022-10-30T02:02:12.011Z,7.93
2022-10-30T02:04:43.437Z,6.53
2022-10-30T02:07:12.757Z,7.53
2022-10-30T02:09:47.653Z,7.77
2022-10-30T02:12:17.644Z,6.33
2022-10-30T02:14:48.798Z,7.10
2022-10-30T02:17:17.810Z,7.57
2022-10-30T02:19:47.602Z,7.53
2022-10-30T02:22:17.909Z,6.93
2022-10-30T02:24:46.835Z,7.10
2022-10-30T02:27:15.215Z,7.60
2022-10-30T02:29:43.627Z,7.13
2022-10-30T02:32:12.172Z,6.17
2022-10-30T02:34:40.801Z,6.97
2022-10-30T02:37:09.280Z,7.07
2022-10-30T02:39:40.426Z,7.93
2022-10-30T02:42:08.917Z,7.17
2022-10-30T02:44:37.387Z,7.03
2022-10-30T02:47:05.862Z,7.83
2022-10-30T02:49:34.818Z,7.33
2022-10-30T02:52:03.270Z,6.90
2022-10-30T02:54:31.681Z,8.07
2022-10-30T02:57:01.707Z,6.47
2022-10-30T02:59:30.926Z,7.37
2022-10-30T03:02:00.252Z,8.23
2022-10-30T03:04:28.994Z,8.13
2022-10-30T03:06:57.411Z,7.60
2022-10-30T03:09:25.923Z,7.03
2022-10-30T03:11:54.296Z,7.87
2022-10-30T03:14:26.672Z,7.70
2022-10-30T03:16:55.197Z,9.23
2022-10-30T03:19:23.580Z,8.00
2022-10-30T03:21:54.803Z,8.30
2022-10-30T03:24:23.217Z,7.80
2022-10-30T03:26:51.606Z,9.77
2022-10-30T03:29:19.998Z,8.37
2022-10-30T03:31:49.845Z,7.90
2022-10-30T03:34:22.518Z,7.77
2022-10-30T03:36:50.993Z,7.47
2022-10-30T03:39:19.493Z,8.53
2022-10-30T03:41:48.346Z,7.93
2022-10-30T03:44:17.068Z,6.67
2022-10-30T03:46:45.827Z,8.13
2022-10-30T03:49:26.618Z,7.40
2022-10-30T03:51:56.277Z,7.97
2022-10-30T03:54:27.523Z,7.20
2022-10-30T03:56:55.915Z,8.27
2022-10-30T03:59:28.025Z,7.77
2022-10-30T04:04:53.942Z,7.53
2022-10-30T04:07:22.477Z,7.73
2022-10-30T04:09:51.305Z,7.87
2022-10-30T04:12:19.755Z,7.77
2022-10-30T04:14:48.163Z,7.60
2022-10-30T04:17:16.527Z,7.70
2022-10-30T04:19:44.983Z,7.67
2022-10-30T04:22:14.869Z,8.93
2022-10-30T04:24:43.407Z,8.37
2022-10-30T04:27:13.169Z,7.67
2022-10-30T04:29:42.156Z,7.30
2022-10-30T04:32:11.251Z,7.10
2022-10-30T04:34:40.334Z,7.67
2022-10-30T04:37:09.057Z,8.53
2022-10-30T04:39:42.347Z,8.47
2022-10-30T04:42:18.298Z,8.50
2022-10-30T04:44:46.793Z,8.73
2022-10-30T04:47:17.235Z,8.07
2022-10-30T04:49:45.695Z,8.90
2022-10-30T04:52:14.146Z,8.83
2022-10-30T04:54:45.014Z,8.27
2022-10-30T04:57:13.902Z,8.60
2022-10-30T04:59:44.038Z,8.30
2022-10-30T05:02:12.602Z,8.27
2022-10-30T05:04:41.135Z,8.47
2022-10-30T05:07:09.515Z,8.83
2022-10-30T05:09:37.947Z,7.40
2022-10-30T05:12:08.835Z,8.90
2022-10-30T05:14:47.732Z,8.37
2022-10-30T05:17:16.258Z,7.63
2022-10-30T05:19:44.875Z,7.97
2022-10-30T05:22:13.944Z,7.57
2022-10-30T05:24:42.338Z,8.07
2022-10-30T05:27:12.321Z,8.20
2022-10-30T05:29:41.777Z,8.00
2022-10-30T05:32:11.275Z,7.37
2022-10-30T05:34:45.119Z,9.27
2022-10-30T05:37:15.883Z,8.67
2022-10-30T05:39:45.046Z,8.67
2022-10-30T05:42:26.240Z,8.57
2022-10-30T05:45:00.821Z,8.43
2022-10-30T05:47:31.283Z,9.23
2022-10-30T05:50:00.036Z,7.70
2022-10-30T05:52:29.622Z,8.83
2022-10-30T05:54:59.873Z,8.87
2022-10-30T05:57:46.170Z,8.37
2022-10-30T06:00:15.882Z,9.70
2022-10-30T06:02:44.254Z,9.87
2022-10-30T06:05:15.398Z,9.80
2022-10-30T06:07:44.467Z,9.73
2022-10-30T06:10:12.926Z,10.70
2022-10-30T06:13:07.924Z,10.57
2022-10-30T06:15:56.077Z,9.77
2022-10-30T06:18:25.741Z,10.33
2022-10-30T06:20:56.500Z,9.60
2022-10-30T06:23:39.475Z,10.30
2022-10-30T06:26:19.102Z,10.53
2022-10-30T06:28:54.240Z,10.23
2022-10-30T06:31:23.153Z,9.60
2022-10-30T06:33:51.581Z,10.17
2022-10-30T06:36:22.163Z,9.97
2022-10-30T06:38:50.628Z,10.40
2022-10-30T06:41:25.899Z,9.53
2022-10-30T06:44:21.225Z,9.73
2022-10-30T06:46:49.647Z,8.97
2022-10-30T06:49:19.028Z,9.63
2022-10-30T06:51:47.804Z,10.00
2022-10-30T06:54:17.304Z,9.43
2022-10-30T06:57:11.694Z,9.90
2022-10-30T06:59:54.990Z,8.50
2022-10-30T07:02:59.952Z,9.17
2022-10-30T07:05:29.800Z,9.90
2022-10-30T07:07:59.321Z,8.67
2022-10-30T07:10:27.825Z,10.17
2022-10-30T07:13:12.787Z,9.17
2022-10-30T07:15:52.242Z,9.53
2022-10-30T07:18:30.224Z,9.67
2022-10-30T07:21:01.010Z,8.60
2022-10-30T07:23:31.030Z,9.10
2022-10-30T07:26:25.373Z,8.93
2022-10-30T07:28:56.095Z,9.40
2022-10-30T07:31:42.293Z,9.00
2022-10-30T07:34:50.522Z,9.73
2022-10-30T07:37:30.025Z,8.47
2022-10-30T07:40:12.980Z,8.37
2022-10-30T07:43:02.262Z,9.30
2022-10-30T07:45:49.918Z,9.33
2022-10-30T07:48:38.534Z,11.60
2022-10-30T07:51:09.703Z,10.77
2022-10-30T07:53:39.062Z,11.10
2022-10-30T07:56:09.217Z,10.63
2022-10-30T07:58:57.853Z,10.97
2022-10-30T08:01:37.473Z,10.27
2022-10-30T08:04:22.308Z,10.90
2022-10-30T08:06:50.835Z,11.00
2022-10-30T08:09:20.298Z,11.73
2022-10-30T08:11:49.009Z,14.70
2022-10-30T08:14:18.006Z,10.60
2022-10-30T08:16:46.456Z,9.33
2022-10-30T08:19:15.035Z,9.33
2022-10-30T08:21:45.373Z,9.90
2022-10-30T08:24:18.792Z,8.60
2022-10-30T08:26:51.997Z,9.33
2022-10-30T08:29:20.457Z,9.00
2022-10-30T08:31:51.578Z,9.10
2022-10-30T08:34:26.614Z,8.93
2022-10-30T08:36:57.916Z,9.00
2022-10-30T08:39:26.450Z,9.17
2022-10-30T08:42:19.089Z,9.43
2022-10-30T08:44:47.629Z,8.93
2022-10-30T08:47:24.842Z,9.50
2022-10-30T08:49:53.270Z,8.87
2022-10-30T08:52:27.074Z,7.67
2022-10-30T08:54:57.957Z,9.40
2022-10-30T08:57:28.536Z,7.73
2022-10-30T08:59:58.910Z,7.93
2022-10-30T09:02:46.348Z,8.23
2022-10-30T09:05:33.359Z,8.73
2022-10-30T09:08:23.554Z,7.97
2022-10-30T09:10:56.858Z,8.70
2022-10-30T09:13:25.897Z,8.60
2022-10-30T09:15:55.602Z,8.50
2022-10-30T09:18:24.133Z,9.13
2022-10-30T09:20:52.550Z,8.33
2022-10-30T09:23:21.196Z,8.40
2022-10-30T09:25:59.869Z,8.60
2022-10-30T09:28:42.941Z,8.40
2022-10-30T09:31:46.347Z,7.97
2022-10-30T09:34:19.028Z,8.50
2022-10-30T09:36:54.261Z,8.67
2022-10-30T09:39:22.790Z,8.07
2022-10-30T09:42:19.979Z,8.27
2022-10-30T09:48:24.766Z,8.00
2022-10-30T09:51:31.325Z,8.27
2022-10-30T09:54:12.551Z,8.50
2022-10-30T09:56:56.709Z,7.70
2022-10-30T09:59:40.462Z,6.67
2022-10-30T10:02:23.937Z,7.30
2022-10-30T10:04:57.598Z,6.73
2022-10-30T10:07:48.861Z,6.83
2022-10-30T10:10:50.132Z,6.13
2022-10-30T10:13:30.550Z,6.93
2022-10-30T10:16:06.375Z,6.53
2022-10-30T10:18:39.182Z,6.57
2022-10-30T10:21:14.924Z,6.70
2022-10-30T10:23:48.598Z,6.70
2022-10-30T10:26:28.892Z,7.23
2022-10-30T10:29:18.668Z,6.73
2022-10-30T10:31:58.260Z,8.17
2022-10-30T10:34:39.472Z,7.63
2022-10-30T10:37:18.805Z,6.20
2022-10-30T10:40:01.571Z,8.27
2022-10-30T10:42:38.126Z,7.13
2022-10-30T10:45:26.728Z,7.23
2022-10-30T10:48:36.365Z,7.23
2022-10-30T10:51:08.142Z,7.20
2022-10-30T10:53:45.387Z,6.53
2022-10-30T10:56:14.813Z,7.40
2022-10-30T10:58:50.467Z,7.47
2022-10-30T11:01:23.746Z,6.77
2022-10-30T11:03:59.352Z,7.50
2022-10-30T11:06:29.667Z,7.00
2022-10-30T11:09:13.015Z,7.13
2022-10-30T11:11:41.476Z,8.00
2022-10-30T11:14:15.397Z,7.13
2022-10-30T11:16:55.233Z,8.60
2022-10-30T11:19:25.907Z,7.97
2022-10-30T11:21:56.295Z,7.67
2022-10-30T11:24:30.088Z,7.37
2022-10-30T11:26:59.837Z,7.87
2022-10-30T11:29:30.738Z,8.10
2022-10-30T11:32:03.835Z,7.60
2022-10-30T11:34:36.209Z,7.10
2022-10-30T11:37:06.092Z,7.47
2022-10-30T11:39:35.886Z,8.93
2022-10-30T11:42:13.495Z,8.03
2022-10-30T11:44:44.219Z,7.43
2022-10-30T11:47:15.608Z,8.43
2022-10-30T11:49:48.808Z,7.90
2022-10-30T11:52:22.034Z,6.93
2022-10-30T11:54:54.066Z,7.03
2022-10-30T11:57:25.718Z,8.33
2022-10-30T12:00:00.574Z,7.03
2022-10-30T12:02:43.749Z,6.83
2022-10-30T12:05:33.787Z,7.77
2022-10-30T12:08:29.364Z,6.63
2022-10-30T12:11:01.246Z,7.00
2022-10-30T12:13:37.387Z,7.53
2022-10-30T12:16:09.499Z,6.27
2022-10-30T12:18:38.349Z,5.40
2022-10-30T12:21:08.959Z,6.90
2022-10-30T12:23:38.017Z,6.67
2022-10-30T12:26:11.227Z,7.23
2022-10-30T12:28:40.598Z,6.07
2022-10-30T12:31:15.047Z,5.83
2022-10-30T12:33:50.237Z,6.43
2022-10-30T12:36:23.382Z,6.63
2022-10-30T12:38:54.835Z,6.57
2022-10-30T12:41:27.878Z,6.80
2022-10-30T12:44:03.331Z,5.77
2022-10-30T12:46:36.965Z,6.50
2022-10-30T12:49:12.954Z,7.20
2022-10-30T12:51:53.040Z,6.13
2022-10-30T12:54:30.889Z,7.07
2022-10-30T12:57:08.475Z,6.27
2022-10-30T12:59:45.093Z,6.53
2022-10-30T13:02:22.697Z,6.73
2022-10-30T13:04:57.793Z,5.93
2022-10-30T13:07:35.101Z,7.20
2022-10-30T13:10:16.366Z,7.50
2022-10-30T13:12:52.293Z,7.17
2022-10-30T13:15:28.674Z,7.07
2022-10-30T13:18:00.309Z,7.87
2022-10-30T13:20:32.203Z,7.97
2022-10-30T13:23:10.707Z,7.97
2022-10-30T13:25:47.861Z,6.63
2022-10-30T13:28:23.025Z,7.90
2022-10-30T13:31:05.448Z,8.67
2022-10-30T13:33:41.213Z,8.40
2022-10-30T13:36:16.627Z,8.70
2022-10-30T13:38:53.595Z,8.57
2022-10-30T13:41:31.472Z,7.70
2022-10-30T13:44:07.030Z,9.37
2022-10-30T13:46:56.871Z,9.73
2022-10-30T13:49:39.921Z,8.73
2022-10-30T13:52:15.577Z,8.40
2022-10-30T13:54:49.144Z,8.40
2022-10-30T13:57:20.478Z,8.57
2022-10-30T13:59:56.672Z,8.40
2022-10-30T14:02:36.802Z,8.50
2022-10-30T14:05:17.198Z,8.17
2022-10-30T14:07:51.605Z,8.20
2022-10-30T14:10:40.679Z,8.90
2022-10-30T14:13:16.629Z,8.40
2022-10-30T14:15:46.977Z,8.20
2022-10-30T14:18:39.770Z,8.10
2022-10-30T14:21:35.631Z,8.33
2022-10-30T14:24:06.059Z,9.37
2022-10-30T14:26:36.029Z,9.03
2022-10-30T14:29:39.564Z,9.10
2022-10-30T14:32:41.568Z,7.63
2022-10-30T14:35:33.683Z,9.53
2022-10-30T14:38:25.147Z,7.70
2022-10-30T14:41:15.938Z,8.87
2022-10-30T14:43:58.335Z,7.60
2022-10-30T14:46:34.126Z,8.40
2022-10-30T14:49:16.730Z,8.17
2022-10-30T14:51:52.875Z,7.90
2022-10-30T14:54:27.543Z,8.10
2022-10-30T14:56:56.156Z,8.83
2022-10-30T14:59:34.220Z,8.57
2022-10-30T15:02:30.047Z,8.13
2022-10-30T15:05:15.147Z,8.93
2022-10-30T15:07:50.339Z,9.23
2022-10-30T15:10:26.074Z,8.50
2022-10-30T15:13:09.743Z,8.67
2022-10-30T15:15:40.290Z,9.87
2022-10-30T15:18:12.242Z,9.40
2022-10-30T15:20:41.028Z,9.40
2022-10-30T15:23:13.319Z,8.77
2022-10-30T15:25:48.539Z,9.87
2022-10-30T15:28:21.082Z,9.33
2022-10-30T15:31:06.506Z,7.27
2022-10-30T15:33:37.796Z,8.53
2022-10-30T15:36:07.250Z,8.70
2022-10-30T15:38:36.104Z,8.10
2022-10-30T15:41:05.543Z,8.03
2022-10-30T15:43:36.925Z,7.80
2022-10-30T15:46:11.935Z,8.57
2022-10-30T15:48:42.894Z,8.90
2022-10-30T15:51:17.822Z,8.83
2022-10-30T15:53:48.963Z,9.03
2022-10-30T15:56:20.809Z,8.60
2022-10-30T15:58:55.116Z,9.33
2022-10-30T16:01:32.833Z,7.93
2022-10-30T16:04:02.059Z,8.27
2022-10-30T16:06:31.890Z,9.57
2022-10-30T16:09:00.318Z,9.00
2022-10-30T16:11:28.923Z,10.10
2022-10-30T16:13:57.444Z,8.80
2022-10-30T16:16:30.310Z,8.73
2022-10-30T16:19:02.157Z,7.40
2022-10-30T16:21:31.992Z,7.83
2022-10-30T16:24:02.499Z,7.97
2022-10-30T16:26:33.854Z,8.20
2022-10-30T16:29:08.903Z,7.00
2022-10-30T16:31:39.603Z,7.73
2022-10-30T16:34:17.300Z,7.40
2022-10-30T16:36:46.061Z,6.70
2022-10-30T16:39:17.605Z,5.90
2022-10-30T16:41:46.487Z,4.90
2022-10-30T16:44:21.242Z,6.00
2022-10-30T16:46:56.145Z,4.47
2022-10-30T16:49:27.870Z,6.30
2022-10-30T16:52:03.093Z,8.43
2022-10-30T16:54:33.958Z,7.03
2022-10-30T16:57:05.026Z,5.30
2022-10-30T16:59:36.950Z,4.90
2022-10-30T17:02:16.435Z,5.90
2022-10-30T17:04:48.709Z,4.67
2022-10-30T17:07:21.092Z,4.50
2022-10-30T17:09:52.293Z,5.70
2022-10-30T17:12:22.709Z,6.53
2022-10-30T17:14:54.324Z,8.23
2022-10-30T17:17:30.326Z,6.83
2022-10-30T17:20:01.771Z,6.40
2022-10-30T17:22:30.478Z,6.10
2022-10-30T17:24:59.954Z,7.90
2022-10-30T17:27:46.573Z,8.03
2022-10-30T17:30:36.373Z,6.40
2022-10-30T17:33:25.836Z,5.47
2022-10-30T17:38:27.909Z,5.37
2022-10-30T17:40:56.618Z,4.40
2022-10-30T17:43:28.695Z,4.53
2022-10-30T17:45:57.823Z,5.57
2022-10-30T17:48:30.750Z,5.43
2022-10-30T17:50:59.201Z,6.63
2022-10-30T17:53:27.891Z,6.73
2022-10-30T17:56:01.490Z,6.67
2022-10-30T17:58:30.935Z,5.47
2022-10-30T18:00:59.690Z,6.70
2022-10-30T18:03:29.594Z,5.17
2022-10-30T18:06:00.538Z,5.93
2022-10-30T18:08:29.326Z,5.57
2022-10-30T18:10:57.789Z,5.23
2022-10-30T18:13:26.239Z,6.03
2022-10-30T18:15:58.264Z,5.60
2022-10-30T18:18:26.696Z,5.93
2022-10-30T18:20:56.570Z,7.77
2022-10-30T18:23:54.271Z,6.57
2022-10-30T18:26:16.755Z,8.43
2022-10-30T18:28:45.294Z,10.07
2022-10-30T18:31:15.308Z,10.20
2022-10-30T18:33:44.769Z,8.30
2022-10-30T18:36:16.531Z,7.30
2022-10-30T18:38:45.304Z,8.20
2022-10-30T18:41:17.019Z,7.63
2022-10-30T18:43:47.383Z,9.23
2022-10-30T18:46:16.912Z,7.17
2022-10-30T18:48:45.785Z,7.17
2022-10-30T18:51:19.444Z,6.80
2022-10-30T18:53:52.430Z,6.93
2022-10-30T18:56:22.249Z,8.20
2022-10-30T18:58:54.861Z,8.67
2022-10-30T19:01:27.533Z,7.47
2022-10-30T19:03:56.084Z,6.80
2022-10-30T19:06:26.202Z,6.67
2022-10-30T19:08:54.746Z,7.37
2022-10-30T19:11:25.193Z,9.27
2022-10-30T19:13:54.887Z,9.90
2022-10-30T19:16:25.674Z,9.70
2022-10-30T19:18:54.472Z,9.93
2022-10-30T19:21:26.051Z,8.90
2022-10-30T19:23:55.689Z,7.50
2022-10-30T19:26:24.350Z,6.23
2022-10-30T19:28:52.815Z,6.10
2022-10-30T19:31:21.588Z,6.10
2022-10-30T19:33:54.460Z,5.53
2022-10-30T19:36:33.787Z,5.77
2022-10-30T19:39:08.646Z,6.57
2022-10-30T19:41:38.600Z,6.87
2022-10-30T19:44:07.372Z,6.87
2022-10-30T19:46:35.983Z,5.70
2022-10-30T19:49:16.049Z,4.90
2022-10-30T19:51:46.009Z,5.43
2022-10-30T19:54:14.811Z,5.00
2022-10-30T19:56:44.058Z,7.63
2022-10-30T19:59:14.329Z,5.50
2022-10-30T20:01:44.233Z,5.23
2022-10-30T20:04:13.168Z,6.40
2022-10-30T20:06:41.658Z,6.10
2022-10-30T20:09:12.872Z,5.23
2022-10-30T20:11:41.314Z,6.37
2022-10-30T20:14:09.751Z,5.07
2022-10-30T20:16:38.215Z,5.20
2022-10-30T20:19:26.076Z,6.43
2022-10-30T20:21:55.330Z,5.47
2022-10-30T20:24:25.443Z,4.90
2022-10-30T20:26:56.480Z,5.33
2022-10-30T20:29:25.892Z,6.33
2022-10-30T20:31:54.300Z,4.80
2022-10-30T20:34:22.696Z,4.93
2022-10-30T20:36:51.232Z,5.43
2022-10-30T20:39:19.627Z,5.83
2022-10-30T20:41:49.518Z,5.87
2022-10-30T20:44:17.962Z,5.20
2022-10-30T20:46:46.380Z,4.97
2022-10-30T20:49:17.457Z,6.00
2022-10-30T20:51:47.403Z,5.10
2022-10-30T20:54:15.931Z,4.83
2022-10-30T20:56:44.416Z,5.17
2022-10-30T20:59:14.223Z,6.03
2022-10-30T21:01:42.841Z,5.57
2022-10-30T21:04:11.291Z,5.00
2022-10-30T21:06:39.831Z,5.10
2022-10-30T21:09:08.398Z,6.23
2022-10-30T21:11:36.895Z,5.37
2022-10-30T21:14:05.316Z,5.77
2022-10-30T21:16:35.100Z,5.50
2022-10-30T21:19:03.802Z,5.87
2022-10-30T21:21:32.216Z,5.63
2022-10-30T21:24:00.639Z,5.60
2022-10-30T21:26:29.046Z,5.50
2022-10-30T21:28:57.558Z,4.97
2022-10-30T21:31:26.028Z,6.23
2022-10-30T21:33:55.775Z,5.97
2022-10-30T21:36:24.723Z,5.90
2022-10-30T21:38:53.193Z,5.63
2022-10-30T21:41:24.831Z,5.33
2022-10-30T21:43:54.780Z,5.33
2022-10-30T21:46:24.734Z,5.07
2022-10-30T21:48:53.566Z,4.83
2022-10-30T21:51:25.440Z,4.90
2022-10-30T21:53:55.771Z,5.00
2022-10-30T21:56:26.644Z,4.33
2022-10-30T21:58:56.467Z,6.00
2022-10-30T22:01:27.524Z,5.00
2022-10-30T22:03:56.552Z,4.00
2022-10-30T22:06:26.535Z,4.50
2022-10-30T22:08:56.374Z,4.60
2022-10-30T22:11:27.010Z,4.07
2022-10-30T22:13:55.950Z,4.30
2022-10-30T22:16:25.235Z,5.43
2022-10-30T22:18:53.862Z,4.20
2022-10-30T22:21:22.422Z,5.33
2022-10-30T22:23:52.368Z,4.33
2022-10-30T22:26:22.430Z,5.23
2022-10-30T22:28:54.512Z,7.87
2022-10-30T22:31:24.556Z,6.53
2022-10-30T22:33:53.433Z,4.47
2022-10-30T22:36:23.571Z,5.43
2022-10-30T22:38:58.274Z,5.27
2022-10-30T22:41:28.768Z,5.30
2022-10-30T22:44:00.092Z,5.97
2022-10-30T22:46:30.261Z,6.53
2022-10-30T22:48:59.129Z,5.27
2022-10-30T22:51:27.657Z,5.83
2022-10-30T22:53:59.302Z,6.17
2022-10-30T22:56:29.527Z,6.20
2022-10-30T22:58:58.782Z,7.17
2022-10-30T23:01:29.297Z,7.63
2022-10-30T23:03:59.318Z,7.07
2022-10-30T23:06:29.405Z,7.20
2022-10-30T23:09:00.467Z,7.83
2022-10-30T23:11:29.899Z,7.70
2022-10-30T23:13:58.362Z,8.23
2022-10-30T23:16:27.880Z,8.17
2022-10-30T23:18:57.467Z,8.27
2022-10-30T23:21:29.558Z,8.03
2022-10-30T23:24:02.591Z,8.70
2022-10-30T23:26:32.534Z,8.53
2022-10-30T23:29:01.944Z,8.37
2022-10-30T23:31:32.352Z,8.53
2022-10-30T23:34:02.722Z,8.40
2022-10-30T23:36:31.479Z,7.77
2022-10-30T23:39:03.152Z,9.00
2022-10-30T23:41:34.246Z,9.10
2022-10-30T23:44:04.972Z,8.10
2022-10-30T23:46:33.817Z,9.20
2022-10-30T23:49:02.406Z,8.10
2022-10-30T23:51:31.160Z,9.00
2022-10-30T23:54:01.143Z,9.23
2022-10-30T23:56:30.467Z,9.77
2022-10-30T23:58:59.105Z,9.43
